createdAt,value
2017-12-10T00:00:57.232Z,13.77
2017-12-10T00:03:25.899Z,11.93
2017-12-10T00:05:55.366Z,9.00
2017-12-10T00:08:24.462Z,13.33
2017-12-10T00:10:53.150Z,17.27
2017-12-10T00:13:21.896Z,21.13
2017-12-10T00:15:50.661Z,24.37
2017-12-10T00:18:20.181Z,18.93
2017-12-10T00:20:48.891Z,23.03
2017-12-10T00:23:17.867Z,17.63
2017-12-10T00:25:46.586Z,19.13
2017-12-10T00:28:15.487Z,16.57
2017-12-10T00:30:44.270Z,18.77
2017-12-10T00:33:13.009Z,14.57
2017-12-10T00:35:42.506Z,16.80
2017-12-10T00:38:12.076Z,9.50
2017-12-10T00:40:40.862Z,9.57
2017-12-10T00:43:09.653Z,13.50
2017-12-10T00:45:38.843Z,9.47
2017-12-10T00:48:07.638Z,12.63
2017-12-10T00:50:36.337Z,15.10
2017-12-10T00:53:05.780Z,12.40
2017-12-10T00:55:34.498Z,13.20
2017-12-10T00:58:03.262Z,10.30
2017-12-10T01:00:32.133Z,15.90
2017-12-10T01:03:01.486Z,13.57
2017-12-10T01:05:30.217Z,9.73
2017-12-10T01:07:59.687Z,8.13
2017-12-10T01:10:28.380Z,10.17
2017-12-10T01:12:57.151Z,17.67
2017-12-10T01:15:25.886Z,18.33
2017-12-10T01:17:55.446Z,9.73
2017-12-10T01:20:24.174Z,8.67
2017-12-10T01:22:54.046Z,14.67
2017-12-10T01:25:22.783Z,7.13
2017-12-10T01:27:52.141Z,13.33
2017-12-10T01:30:21.297Z,19.57
2017-12-10T01:32:50.037Z,9.10
2017-12-10T01:35:19.533Z,10.07
2017-12-10T01:37:48.312Z,8.40
2017-12-10T01:40:17.040Z,12.93
2017-12-10T01:42:46.605Z,9.93
2017-12-10T01:45:15.597Z,9.57
2017-12-10T01:47:44.292Z,9.73
2017-12-10T01:50:13.010Z,11.40
2017-12-10T01:52:42.478Z,15.67
2017-12-10T01:55:11.223Z,16.00
2017-12-10T01:57:40.715Z,11.07
2017-12-10T02:00:10.634Z,9.57
2017-12-10T02:02:40.084Z,10.00
2017-12-10T02:05:08.887Z,6.20
2017-12-10T02:07:37.974Z,7.30
2017-12-10T02:10:06.764Z,3.97
2017-12-10T02:12:35.553Z,3.13
2017-12-10T02:15:06.789Z,4.43
2017-12-10T02:17:35.532Z,4.77
2017-12-10T02:20:05.000Z,3.70
2017-12-10T02:22:33.983Z,1.97
2017-12-10T02:25:02.768Z,4.00
2017-12-10T02:27:31.552Z,4.00
2017-12-10T02:30:00.548Z,5.33
2017-12-10T02:32:29.341Z,5.57
2017-12-10T02:34:58.027Z,9.47
2017-12-10T02:37:26.849Z,9.30
2017-12-10T02:39:56.422Z,8.80
2017-12-10T02:42:25.107Z,4.43
2017-12-10T02:44:54.151Z,12.77
2017-12-10T02:47:22.892Z,7.87
2017-12-10T02:49:51.609Z,2.53
2017-12-10T02:52:21.383Z,4.73
2017-12-10T02:54:50.129Z,5.23
2017-12-10T02:57:18.854Z,3.43
2017-12-10T02:59:47.808Z,4.00
2017-12-10T03:02:16.572Z,2.73
2017-12-10T03:04:45.428Z,6.73
2017-12-10T03:07:14.629Z,6.77
2017-12-10T03:09:43.261Z,3.87
2017-12-10T03:12:12.812Z,5.07
2017-12-10T03:14:41.706Z,4.73
2017-12-10T03:17:10.491Z,2.30
2017-12-10T03:19:39.221Z,4.20
2017-12-10T03:22:08.894Z,2.23
2017-12-10T03:24:37.635Z,0.63
2017-12-10T03:27:06.379Z,0.40
2017-12-10T03:29:35.420Z,0.50
2017-12-10T03:32:04.252Z,0.50
2017-12-10T03:34:32.938Z,0.50
2017-12-10T03:37:01.576Z,0.57
2017-12-10T03:39:31.023Z,0.63
2017-12-10T03:41:59.807Z,1.20
2017-12-10T03:44:28.603Z,0.87
2017-12-10T03:46:57.288Z,0.87
2017-12-10T03:49:25.916Z,1.43
2017-12-10T03:51:55.525Z,1.93
2017-12-10T03:54:25.080Z,5.43
2017-12-10T03:56:53.875Z,3.23
2017-12-10T03:59:22.582Z,5.67
2017-12-10T04:01:51.247Z,7.70
2017-12-10T04:04:19.837Z,5.97
2017-12-10T04:06:48.816Z,1.93
2017-12-10T04:09:17.611Z,1.17
2017-12-10T04:11:46.344Z,1.20
2017-12-10T04:14:15.795Z,1.30
2017-12-10T04:16:44.585Z,1.70
2017-12-10T04:19:13.432Z,2.07
2017-12-10T04:21:42.889Z,1.63
2017-12-10T04:24:11.570Z,1.53
2017-12-10T04:26:40.246Z,2.17
2017-12-10T04:29:09.250Z,10.60
2017-12-10T04:31:37.844Z,4.00
2017-12-10T04:34:06.621Z,3.07
2017-12-10T04:36:35.669Z,4.20
2017-12-10T04:39:04.398Z,3.87
2017-12-10T04:41:33.183Z,2.50
2017-12-10T04:44:01.979Z,2.60
2017-12-10T04:46:30.664Z,2.57
2017-12-10T04:48:59.336Z,1.60
2017-12-10T04:51:28.074Z,5.03
2017-12-10T04:53:57.588Z,2.30
2017-12-10T04:56:27.141Z,1.83
2017-12-10T04:58:56.037Z,1.93
2017-12-10T05:01:24.820Z,1.90
2017-12-10T05:03:53.616Z,1.73
2017-12-10T05:06:22.301Z,1.23
2017-12-10T05:08:51.087Z,1.80
2017-12-10T05:11:19.871Z,1.90
2017-12-10T05:13:48.863Z,1.73
2017-12-10T05:16:17.595Z,3.93
2017-12-10T05:18:46.316Z,2.03
2017-12-10T05:21:15.778Z,4.50
2017-12-10T05:23:44.563Z,5.13
2017-12-10T05:26:13.164Z,1.73
2017-12-10T05:28:41.986Z,2.77
2017-12-10T05:31:11.479Z,2.17
2017-12-10T05:33:40.993Z,2.03
2017-12-10T05:36:10.855Z,9.20
2017-12-10T05:38:39.651Z,9.27
2017-12-10T05:41:08.329Z,6.10
2017-12-10T05:43:37.263Z,7.77
2017-12-10T05:46:06.736Z,11.87
2017-12-10T05:48:35.477Z,5.37
2017-12-10T05:51:04.344Z,4.60
2017-12-10T05:53:33.808Z,2.80
2017-12-10T05:56:02.502Z,4.37
2017-12-10T05:58:31.322Z,3.30
2017-12-10T06:01:00.836Z,2.83
2017-12-10T06:03:30.393Z,2.33
2017-12-10T06:05:59.289Z,3.50
2017-12-10T06:08:28.016Z,4.83
2017-12-10T06:10:57.482Z,4.67
2017-12-10T06:13:27.901Z,9.43
2017-12-10T06:15:56.590Z,10.03
2017-12-10T06:18:25.979Z,2.93
2017-12-10T06:20:54.777Z,3.57
2017-12-10T06:23:23.522Z,5.97
2017-12-10T06:25:52.253Z,4.47
2017-12-10T06:28:21.344Z,3.33
2017-12-10T06:30:50.064Z,2.87
2017-12-10T06:33:18.817Z,5.07
2017-12-10T06:35:47.559Z,3.47
2017-12-10T06:38:17.051Z,7.57
2017-12-10T06:40:46.392Z,5.03
2017-12-10T06:43:15.413Z,3.63
2017-12-10T06:45:44.030Z,3.73
2017-12-10T06:48:13.543Z,5.07
2017-12-10T06:50:43.105Z,4.63
2017-12-10T06:53:11.829Z,6.53
2017-12-10T06:55:40.520Z,14.43
2017-12-10T06:58:09.992Z,4.90
2017-12-10T07:00:38.879Z,4.47
2017-12-10T07:03:08.029Z,5.77
2017-12-10T07:05:36.756Z,7.60
2017-12-10T07:08:05.550Z,3.33
2017-12-10T07:10:34.643Z,7.50
2017-12-10T07:13:03.371Z,4.43
2017-12-10T07:15:32.837Z,3.03
2017-12-10T07:18:01.719Z,10.93
2017-12-10T07:20:30.516Z,9.07
2017-12-10T07:22:59.241Z,7.20
2017-12-10T07:25:27.960Z,6.47
2017-12-10T07:27:56.676Z,4.60
2017-12-10T07:30:26.189Z,5.80
2017-12-10T07:32:55.744Z,4.90
2017-12-10T07:35:24.475Z,4.07
2017-12-10T07:37:53.947Z,5.23
2017-12-10T07:40:22.689Z,5.20
2017-12-10T07:42:51.410Z,6.10
2017-12-10T07:45:20.147Z,16.70
2017-12-10T07:47:50.172Z,9.53
2017-12-10T07:50:19.003Z,5.43
2017-12-10T07:52:47.698Z,3.90
2017-12-10T07:55:16.584Z,6.63
2017-12-10T07:57:45.269Z,4.47
2017-12-10T08:00:13.929Z,9.80
2017-12-10T08:02:42.942Z,16.07
2017-12-10T08:05:11.761Z,13.37
2017-12-10T08:07:40.421Z,12.33
2017-12-10T08:10:10.395Z,8.33
2017-12-10T08:12:39.892Z,12.40
2017-12-10T08:15:09.548Z,16.80
2017-12-10T08:17:39.265Z,12.10
2017-12-10T08:20:08.050Z,6.70
2017-12-10T08:22:36.736Z,14.17
2017-12-10T08:25:05.630Z,7.53
2017-12-10T08:27:34.306Z,12.63
2017-12-10T08:30:03.101Z,11.70
2017-12-10T08:32:31.927Z,15.03
2017-12-10T08:35:01.425Z,10.20
2017-12-10T08:37:30.897Z,30.17
2017-12-10T08:39:59.633Z,17.10
2017-12-10T08:42:29.098Z,28.47
2017-12-10T08:44:57.816Z,21.57
2017-12-10T08:47:27.490Z,16.70
2017-12-10T08:49:56.175Z,15.60
2017-12-10T08:52:24.897Z,16.17
2017-12-10T08:54:54.666Z,33.10
2017-12-10T08:57:23.461Z,11.60
2017-12-10T08:59:52.247Z,21.20
2017-12-10T09:02:20.943Z,10.13
2017-12-10T09:04:49.717Z,7.33
2017-12-10T09:07:18.448Z,7.40
2017-12-10T09:09:48.317Z,5.93
2017-12-10T09:12:17.112Z,7.47
2017-12-10T09:14:45.798Z,4.90
2017-12-10T09:17:14.633Z,10.23
2017-12-10T09:19:44.081Z,12.47
2017-12-10T09:22:12.832Z,9.83
2017-12-10T09:24:41.575Z,5.93
2017-12-10T09:27:10.350Z,4.37
2017-12-10T09:29:39.082Z,4.10
2017-12-10T09:32:08.636Z,4.77
2017-12-10T09:34:37.213Z,5.30
2017-12-10T09:37:05.963Z,4.27
2017-12-10T09:39:35.927Z,3.60
2017-12-10T09:42:05.421Z,5.03
2017-12-10T09:44:34.898Z,7.63
2017-12-10T09:47:03.832Z,5.27
2017-12-10T09:49:33.298Z,4.70
2017-12-10T09:52:01.989Z,6.33
2017-12-10T09:54:30.774Z,11.97
2017-12-10T09:59:50.629Z,10.47
2017-12-10T10:02:19.359Z,14.67
2017-12-10T10:04:48.104Z,18.20
2017-12-10T10:07:16.936Z,25.80
2017-12-10T10:09:45.720Z,21.90
2017-12-10T10:12:14.454Z,27.77
2017-12-10T10:14:43.925Z,12.87
2017-12-10T10:17:12.549Z,11.63
2017-12-10T10:19:42.109Z,24.20
2017-12-10T10:22:11.102Z,12.63
2017-12-10T10:24:39.818Z,9.33
2017-12-10T10:27:09.284Z,5.97
2017-12-10T10:29:38.283Z,6.50
2017-12-10T10:32:06.964Z,9.53
2017-12-10T10:34:35.661Z,10.47
2017-12-10T10:37:04.702Z,11.77
2017-12-10T10:39:34.251Z,9.73
2017-12-10T10:42:03.046Z,8.20
2017-12-10T10:44:31.732Z,5.87
2017-12-10T10:47:00.418Z,7.17
2017-12-10T10:49:29.203Z,9.27
2017-12-10T10:51:58.294Z,8.83
2017-12-10T10:54:27.026Z,8.60
2017-12-10T10:56:56.652Z,10.67
2017-12-10T10:59:25.540Z,10.37
2017-12-10T11:01:54.265Z,9.37
2017-12-10T11:04:23.062Z,12.07
2017-12-10T11:06:53.028Z,14.47
2017-12-10T11:09:21.761Z,10.80
2017-12-10T11:11:50.502Z,11.77
2017-12-10T11:14:19.292Z,12.07
2017-12-10T11:16:48.839Z,9.37
2017-12-10T11:19:17.634Z,8.57
2017-12-10T11:21:46.673Z,12.07
2017-12-10T11:24:16.027Z,6.60
2017-12-10T11:26:44.812Z,11.33
2017-12-10T11:29:13.606Z,8.60
2017-12-10T11:31:42.392Z,7.30
2017-12-10T11:34:11.184Z,13.83
2017-12-10T11:36:39.899Z,6.30
2017-12-10T11:39:08.592Z,5.53
2017-12-10T11:41:38.063Z,6.77
2017-12-10T11:44:07.148Z,4.57
2017-12-10T11:46:35.943Z,7.30
2017-12-10T11:49:04.666Z,11.57
2017-12-10T11:51:34.072Z,6.27
2017-12-10T11:54:03.578Z,5.40
2017-12-10T11:56:33.451Z,6.43
2017-12-10T11:59:02.643Z,5.33
2017-12-10T12:01:31.333Z,4.43
2017-12-10T12:04:00.068Z,10.73
2017-12-10T12:06:29.731Z,6.37
2017-12-10T12:08:58.456Z,12.13
2017-12-10T12:11:28.023Z,9.63
2017-12-10T12:13:56.812Z,6.60
2017-12-10T12:16:25.437Z,13.60
2017-12-10T12:18:54.949Z,7.40
2017-12-10T12:21:23.690Z,7.40
2017-12-10T12:23:52.531Z,6.63
2017-12-10T12:26:21.984Z,8.53
2017-12-10T12:28:50.868Z,9.90
2017-12-10T12:31:20.342Z,14.00
2017-12-10T12:33:49.078Z,9.73
2017-12-10T12:36:18.556Z,12.17
2017-12-10T12:38:47.267Z,15.60
2017-12-10T12:41:16.733Z,9.13
2017-12-10T12:43:45.418Z,8.23
2017-12-10T12:46:14.144Z,7.27
2017-12-10T12:48:42.860Z,7.30
2017-12-10T12:51:11.904Z,11.50
2017-12-10T12:53:41.368Z,12.33
2017-12-10T12:56:10.086Z,14.43
2017-12-10T12:58:38.830Z,7.63
2017-12-10T13:01:07.575Z,11.93
2017-12-10T13:03:37.092Z,13.00
2017-12-10T13:06:06.003Z,12.73
2017-12-10T13:08:34.705Z,6.47
2017-12-10T13:11:03.392Z,7.20
2017-12-10T13:13:32.285Z,6.47
2017-12-10T13:16:00.981Z,8.23
2017-12-10T13:18:29.702Z,6.60
2017-12-10T13:20:59.412Z,5.60
2017-12-10T13:23:28.883Z,5.10
2017-12-10T13:25:57.753Z,6.40
2017-12-10T13:28:26.921Z,4.97
2017-12-10T13:30:55.684Z,6.43
2017-12-10T13:33:25.149Z,14.67
2017-12-10T13:35:53.846Z,8.40
2017-12-10T13:38:22.564Z,12.27
2017-12-10T13:40:52.033Z,6.87
2017-12-10T13:43:21.013Z,11.57
2017-12-10T13:45:49.743Z,10.53
2017-12-10T13:48:19.206Z,13.90
2017-12-10T13:50:48.308Z,16.83
2017-12-10T13:53:17.045Z,12.73
2017-12-10T13:55:46.534Z,12.87
2017-12-10T13:58:15.999Z,9.77
2017-12-10T14:00:44.613Z,18.93
2017-12-10T14:03:14.194Z,19.30
2017-12-10T14:05:42.979Z,20.77
2017-12-10T14:08:11.674Z,16.33
2017-12-10T14:10:41.238Z,20.40
2017-12-10T14:13:10.231Z,12.37
2017-12-10T14:15:39.026Z,10.57
2017-12-10T14:18:07.745Z,11.63
2017-12-10T14:20:36.772Z,9.57
2017-12-10T14:23:05.505Z,48.90
2017-12-10T14:25:34.980Z,18.50
2017-12-10T14:28:04.039Z,19.87
2017-12-10T14:30:32.856Z,27.83
2017-12-10T14:33:01.597Z,24.60
2017-12-10T14:35:31.457Z,36.63
2017-12-10T14:38:00.268Z,31.27
2017-12-10T14:40:29.028Z,42.67
2017-12-10T14:42:57.868Z,25.30
2017-12-10T14:45:27.550Z,31.67
2017-12-10T14:47:56.228Z,81.90
2017-12-10T14:50:25.057Z,118.50
2017-12-10T14:52:54.648Z,38.03
2017-12-10T14:55:24.224Z,35.60
2017-12-10T14:57:53.117Z,66.60
2017-12-10T15:00:21.903Z,64.67
2017-12-10T15:02:50.687Z,35.50
2017-12-10T15:05:19.629Z,51.93
2017-12-10T15:07:50.389Z,40.17
2017-12-10T15:10:20.333Z,33.43
2017-12-10T15:12:48.941Z,67.23
2017-12-10T15:15:17.704Z,49.20
2017-12-10T15:17:46.743Z,43.67
2017-12-10T15:20:16.211Z,33.17
2017-12-10T15:22:44.977Z,44.40
2017-12-10T15:25:14.081Z,36.37
2017-12-10T15:27:42.876Z,99.40
2017-12-10T15:30:11.760Z,275.43
2017-12-10T15:32:42.259Z,356.57
2017-12-10T15:35:10.919Z,155.10
2017-12-10T15:37:39.610Z,149.03
2017-12-10T15:40:08.494Z,78.73
2017-12-10T15:42:37.188Z,42.30
2017-12-10T15:45:05.976Z,21.33
2017-12-10T15:47:34.746Z,25.97
2017-12-10T15:50:03.544Z,116.73
2017-12-10T15:52:32.340Z,390.07
2017-12-10T15:55:01.381Z,61.83
2017-12-10T15:57:30.844Z,50.50
2017-12-10T15:59:59.563Z,37.03
2017-12-10T16:02:28.665Z,53.80
2017-12-10T16:04:57.271Z,45.87
2017-12-10T16:07:26.019Z,28.53
2017-12-10T16:09:55.710Z,37.13
2017-12-10T16:12:24.337Z,32.37
2017-12-10T16:14:53.070Z,35.90
2017-12-10T16:17:22.637Z,41.90
2017-12-10T16:19:51.332Z,40.83
2017-12-10T16:22:20.050Z,36.73
2017-12-10T16:24:49.610Z,46.57
2017-12-10T16:27:18.394Z,89.67
2017-12-10T16:29:47.189Z,65.97
2017-12-10T16:32:15.974Z,21.67
2017-12-10T16:34:44.666Z,11.23
2017-12-10T16:37:13.404Z,11.47
2017-12-10T16:39:42.241Z,171.93
2017-12-10T16:42:11.025Z,85.87
2017-12-10T16:44:39.757Z,41.50
2017-12-10T16:47:09.599Z,37.80
2017-12-10T16:49:38.410Z,38.93
2017-12-10T16:52:07.173Z,62.70
2017-12-10T16:54:36.026Z,135.63
2017-12-10T16:57:04.742Z,219.17
2017-12-10T16:59:33.464Z,367.53
2017-12-10T17:02:02.564Z,119.17
2017-12-10T17:04:31.250Z,39.17
2017-12-10T17:07:00.036Z,42.30
2017-12-10T17:09:28.921Z,33.63
2017-12-10T17:11:57.651Z,64.63
2017-12-10T17:14:27.224Z,205.93
2017-12-10T17:16:56.261Z,127.13
2017-12-10T17:19:25.775Z,83.87
2017-12-10T17:21:55.321Z,135.53
2017-12-10T17:24:24.223Z,216.97
2017-12-10T17:26:52.902Z,200.13
2017-12-10T17:29:21.686Z,219.23
2017-12-10T17:31:50.738Z,185.40
2017-12-10T17:34:20.192Z,211.83
2017-12-10T17:36:49.133Z,356.93
2017-12-10T17:39:17.869Z,395.17
2017-12-10T17:41:46.651Z,406.00
2017-12-10T17:44:15.354Z,337.70
2017-12-10T17:46:44.172Z,205.47
2017-12-10T17:49:13.739Z,520.57
2017-12-10T17:51:42.425Z,151.57
2017-12-10T17:54:11.211Z,60.77
2017-12-10T17:56:39.951Z,65.27
2017-12-10T17:59:08.670Z,110.73
2017-12-10T18:01:37.576Z,445.03
2017-12-10T18:04:06.296Z,208.07
2017-12-10T18:06:36.463Z,106.03
2017-12-10T18:09:06.299Z,239.40
2017-12-10T18:11:36.059Z,169.70
2017-12-10T18:14:06.537Z,275.87
2017-12-10T18:16:35.221Z,391.80
2017-12-10T18:19:03.952Z,185.80
2017-12-10T18:21:33.822Z,128.47
2017-12-10T18:24:02.606Z,132.23
2017-12-10T18:26:31.326Z,198.27
2017-12-10T18:29:00.343Z,287.07
2017-12-10T18:31:29.796Z,294.10
2017-12-10T18:33:58.580Z,226.93
2017-12-10T18:36:27.750Z,213.20
2017-12-10T18:38:56.468Z,185.70
2017-12-10T18:41:26.041Z,142.37
2017-12-10T18:43:55.922Z,181.67
2017-12-10T18:46:24.621Z,178.10
2017-12-10T18:48:53.394Z,148.20
2017-12-10T18:51:22.176Z,151.67
2017-12-10T18:53:50.921Z,146.80
2017-12-10T18:56:20.373Z,171.97
2017-12-10T18:58:49.160Z,171.37
2017-12-10T19:01:17.897Z,186.43
2017-12-10T19:03:47.369Z,187.50
2017-12-10T19:06:16.040Z,186.30
2017-12-10T19:08:44.779Z,183.40
2017-12-10T19:11:13.617Z,187.40
2017-12-10T19:13:42.586Z,182.17
2017-12-10T19:16:11.395Z,194.07
2017-12-10T19:18:40.181Z,221.90
2017-12-10T19:21:08.975Z,228.00
2017-12-10T19:23:37.661Z,229.50
2017-12-10T19:26:06.446Z,280.00
2017-12-10T19:28:35.420Z,314.13
2017-12-10T19:31:04.223Z,341.13
2017-12-10T19:33:32.977Z,403.30
2017-12-10T19:36:01.705Z,343.63
2017-12-10T19:38:31.005Z,322.93
2017-12-10T19:40:59.734Z,167.70
2017-12-10T19:43:29.398Z,137.40
2017-12-10T19:45:58.119Z,174.30
2017-12-10T19:48:27.636Z,181.93
2017-12-10T19:50:57.330Z,146.87
2017-12-10T19:53:26.906Z,136.00
2017-12-10T19:55:55.639Z,143.73
2017-12-10T19:58:25.336Z,132.70
2017-12-10T20:00:54.905Z,136.00
2017-12-10T20:03:23.705Z,123.20
2017-12-10T20:05:52.489Z,148.50
2017-12-10T20:08:21.227Z,159.13
2017-12-10T20:10:49.992Z,148.23
2017-12-10T20:13:18.850Z,165.43
2017-12-10T20:15:47.761Z,143.47
2017-12-10T20:18:16.523Z,167.33
2017-12-10T20:20:45.620Z,195.20
2017-12-10T20:23:14.415Z,183.40
2017-12-10T20:25:43.205Z,184.83
2017-12-10T20:28:12.292Z,173.00
2017-12-10T20:30:41.008Z,164.67
2017-12-10T20:33:09.773Z,158.47
2017-12-10T20:35:38.561Z,129.83
2017-12-10T20:38:07.514Z,138.20
2017-12-10T20:40:36.257Z,137.63
2017-12-10T20:43:05.538Z,166.00
2017-12-10T20:45:34.323Z,158.93
2017-12-10T20:48:03.117Z,168.27
2017-12-10T20:50:32.048Z,171.73
2017-12-10T20:53:01.441Z,161.67
2017-12-10T20:55:30.909Z,96.40
2017-12-10T20:57:59.802Z,82.80
2017-12-10T21:00:28.558Z,68.13
2017-12-10T21:02:57.382Z,63.27
2017-12-10T21:05:26.433Z,76.93
2017-12-10T21:07:55.259Z,84.67
2017-12-10T21:10:23.990Z,87.90
2017-12-10T21:12:53.552Z,127.63
2017-12-10T21:15:22.348Z,122.73
2017-12-10T21:17:51.133Z,125.80
2017-12-10T21:20:20.224Z,139.77
2017-12-10T21:22:48.927Z,163.53
2017-12-10T21:25:17.597Z,180.50
2017-12-10T21:27:46.466Z,307.47
2017-12-10T21:30:15.159Z,260.67
2017-12-10T21:32:43.876Z,232.17
2017-12-10T21:35:13.877Z,221.83
2017-12-10T21:37:42.583Z,229.37
2017-12-10T21:40:11.359Z,249.77
2017-12-10T21:42:40.196Z,224.43
2017-12-10T21:45:08.889Z,227.30
2017-12-10T21:47:37.532Z,218.27
2017-12-10T21:50:06.605Z,228.23
2017-12-10T21:52:35.400Z,211.53
2017-12-10T21:55:04.134Z,170.23
2017-12-10T21:57:33.688Z,129.10
2017-12-10T22:00:02.421Z,121.37
2017-12-10T22:02:31.987Z,97.67
2017-12-10T22:05:01.074Z,55.50
2017-12-10T22:07:29.822Z,42.77
2017-12-10T22:09:58.464Z,47.03
2017-12-10T22:12:27.542Z,38.10
2017-12-10T22:14:56.156Z,28.00
2017-12-10T22:17:24.868Z,23.13
2017-12-10T22:19:54.485Z,22.40
2017-12-10T22:22:23.153Z,20.97
2017-12-10T22:24:52.670Z,17.83
2017-12-10T22:27:22.172Z,18.67
2017-12-10T22:29:51.681Z,17.27
2017-12-10T22:32:20.373Z,17.97
2017-12-10T22:34:49.240Z,14.77
2017-12-10T22:37:18.088Z,16.67
2017-12-10T22:39:46.717Z,19.40
2017-12-10T22:42:16.486Z,21.47
2017-12-10T22:44:45.132Z,19.03
2017-12-10T22:47:13.877Z,17.90
2017-12-10T22:49:42.647Z,15.07
2017-12-10T22:52:11.363Z,20.80
2017-12-10T22:54:41.554Z,21.77
2017-12-10T22:57:10.499Z,21.23
2017-12-10T22:59:39.916Z,38.77
2017-12-10T23:02:08.667Z,52.97
2017-12-10T23:04:38.202Z,59.53
2017-12-10T23:07:06.926Z,57.83
2017-12-10T23:09:35.511Z,76.50
2017-12-10T23:12:04.554Z,85.90
2017-12-10T23:14:41.746Z,82.33
2017-12-10T23:17:10.541Z,91.37
2017-12-10T23:19:39.265Z,91.03
2017-12-10T23:22:07.844Z,98.43
2017-12-10T23:24:36.736Z,92.70
2017-12-10T23:27:05.381Z,85.77
2017-12-10T23:29:34.828Z,95.77
2017-12-10T23:32:03.545Z,73.83
2017-12-10T23:34:33.125Z,76.70
2017-12-10T23:37:01.813Z,101.27
2017-12-10T23:39:30.803Z,143.13
2017-12-10T23:41:59.587Z,219.57
2017-12-10T23:44:28.292Z,170.67
2017-12-10T23:46:57.022Z,134.17
2017-12-10T23:49:26.472Z,153.10
2017-12-10T23:51:55.161Z,190.90
2017-12-10T23:54:24.207Z,207.40
2017-12-10T23:56:52.896Z,262.13
2017-12-10T23:59:21.563Z,304.10
